createdAt,value
2023-04-22T00:00:24.235Z,66.22
2023-04-22T00:02:51.260Z,66.64
2023-04-22T00:05:20.528Z,66.86
2023-04-22T00:07:47.572Z,67.19
2023-04-22T00:10:14.309Z,67.24
2023-04-22T00:12:41.103Z,67.37
2023-04-22T00:15:08.437Z,68.06
2023-04-22T00:17:35.081Z,67.30
2023-04-22T00:20:01.828Z,67.39
2023-04-22T00:22:28.487Z,67.21
2023-04-22T00:24:55.094Z,67.61
2023-04-22T00:27:21.682Z,67.92
2023-04-22T00:29:48.771Z,67.28
2023-04-22T00:32:15.522Z,67.59
2023-04-22T00:34:42.378Z,67.78
2023-04-22T00:37:09.084Z,67.55
2023-04-22T00:39:39.405Z,67.74
2023-04-22T00:42:07.583Z,67.22
2023-04-22T00:44:34.242Z,67.62
2023-04-22T00:47:01.202Z,67.53
2023-04-22T00:49:27.914Z,67.72
2023-04-22T00:51:54.514Z,68.11
2023-04-22T00:54:21.152Z,67.61
2023-04-22T00:56:47.901Z,67.78
2023-04-22T00:59:14.545Z,68.11
2023-04-22T01:01:41.153Z,67.92
2023-04-22T01:04:08.103Z,68.05
2023-04-22T01:06:34.775Z,67.70
2023-04-22T01:09:01.487Z,68.56
2023-04-22T01:11:28.129Z,67.98
2023-04-22T01:13:54.915Z,68.00
2023-04-22T01:16:21.618Z,68.23
2023-04-22T01:18:48.388Z,68.22
2023-04-22T01:21:14.972Z,68.30
2023-04-22T01:23:41.729Z,68.46
2023-04-22T01:26:08.356Z,68.55
2023-04-22T01:28:34.980Z,68.22
2023-04-22T01:31:01.628Z,68.52
2023-04-22T01:33:28.291Z,68.79
2023-04-22T01:35:54.881Z,68.58
2023-04-22T01:38:21.532Z,68.29
2023-04-22T01:40:48.209Z,68.66
2023-04-22T01:43:14.845Z,68.86
2023-04-22T01:45:41.577Z,68.96
2023-04-22T01:48:08.394Z,68.79
2023-04-22T01:50:35.313Z,68.84
2023-04-22T01:53:01.920Z,68.62
2023-04-22T01:55:28.613Z,68.56
2023-04-22T01:57:55.233Z,68.17
2023-04-22T02:00:21.841Z,68.54
2023-04-22T02:02:48.680Z,68.30
2023-04-22T02:05:16.085Z,68.54
2023-04-22T02:07:42.738Z,68.40
2023-04-22T02:10:09.840Z,68.23
2023-04-22T02:12:36.775Z,68.67
2023-04-22T02:15:03.748Z,68.69
2023-04-22T02:17:30.553Z,68.76
2023-04-22T02:19:57.258Z,68.75
2023-04-22T02:22:23.936Z,68.79
2023-04-22T02:24:50.635Z,68.95
2023-04-22T02:27:17.469Z,68.58
2023-04-22T02:29:44.140Z,69.13
2023-04-22T02:32:10.963Z,69.01
2023-04-22T02:34:37.598Z,69.09
2023-04-22T02:37:04.247Z,69.27
2023-04-22T02:39:30.954Z,68.91
2023-04-22T02:41:57.593Z,69.02
2023-04-22T02:44:24.285Z,69.29
2023-04-22T02:46:51.139Z,69.05
2023-04-22T02:49:17.871Z,69.55
2023-04-22T02:51:44.418Z,69.59
2023-04-22T02:54:11.096Z,69.54
2023-04-22T02:56:37.860Z,69.68
2023-04-22T02:59:04.457Z,69.78
2023-04-22T03:01:32.322Z,70.16
2023-04-22T03:03:59.059Z,69.90
2023-04-22T03:06:25.924Z,70.01
2023-04-22T03:08:52.535Z,70.07
2023-04-22T03:11:19.152Z,69.51
2023-04-22T03:13:45.810Z,69.76
2023-04-22T03:16:12.469Z,69.68
2023-04-22T03:18:39.181Z,69.28
2023-04-22T03:21:07.347Z,69.67
2023-04-22T03:23:34.040Z,70.02
2023-04-22T03:26:00.906Z,69.67
2023-04-22T03:28:27.494Z,69.67
2023-04-22T03:30:54.157Z,69.97
2023-04-22T03:33:20.889Z,70.24
2023-04-22T03:35:51.078Z,70.06
2023-04-22T03:38:17.704Z,69.92
2023-04-22T03:40:44.339Z,70.27
2023-04-22T03:43:11.227Z,70.16
2023-04-22T03:45:37.911Z,70.60
2023-04-22T03:48:04.781Z,70.36
2023-04-22T03:50:31.529Z,70.59
2023-04-22T03:52:58.215Z,70.77
2023-04-22T03:55:24.805Z,71.22
2023-04-22T03:57:51.344Z,71.19
2023-04-22T04:00:17.998Z,71.18
2023-04-22T04:02:44.803Z,71.24
2023-04-22T04:05:11.708Z,71.22
2023-04-22T04:07:38.458Z,70.74
2023-04-22T04:10:05.569Z,71.30
2023-04-22T04:12:32.202Z,71.01
2023-04-22T04:14:58.823Z,70.46
2023-04-22T04:17:26.102Z,70.32
2023-04-22T04:19:53.287Z,70.43
2023-04-22T04:22:20.231Z,70.59
2023-04-22T04:24:47.394Z,70.41
2023-04-22T04:27:14.323Z,70.39
2023-04-22T04:29:42.399Z,70.10
2023-04-22T04:32:10.066Z,70.05
2023-04-22T04:34:37.746Z,69.79
2023-04-22T04:37:04.566Z,70.00
2023-04-22T04:39:31.381Z,69.55
2023-04-22T04:41:58.994Z,69.65
2023-04-22T04:44:31.840Z,69.59
2023-04-22T04:46:58.978Z,69.90
2023-04-22T04:49:26.242Z,69.53
2023-04-22T04:51:52.850Z,69.50
2023-04-22T04:54:19.585Z,68.97
2023-04-22T04:56:46.280Z,69.34
2023-04-22T04:59:12.908Z,68.59
2023-04-22T05:01:39.704Z,68.70
2023-04-22T05:04:06.517Z,68.22
2023-04-22T05:06:33.985Z,68.62
2023-04-22T05:09:00.602Z,68.14
2023-04-22T05:11:27.218Z,67.56
2023-04-22T05:13:53.833Z,67.08
2023-04-22T05:16:20.493Z,66.78
2023-04-22T05:18:47.221Z,66.21
2023-04-22T05:21:13.886Z,64.87
2023-04-22T05:23:40.816Z,63.07
2023-04-22T05:26:07.556Z,61.92
2023-04-22T05:28:34.182Z,57.45
2023-04-22T05:31:00.824Z,51.93
2023-04-22T05:33:27.466Z,45.41
2023-04-22T05:35:54.262Z,41.94
2023-04-22T05:38:20.873Z,40.39
2023-04-22T05:40:50.516Z,36.10
2023-04-22T05:43:17.286Z,33.32
2023-04-22T05:45:43.931Z,31.10
2023-04-22T05:48:10.671Z,29.88
2023-04-22T05:50:37.354Z,29.69
2023-04-22T05:53:04.184Z,28.73
2023-04-22T05:55:31.323Z,26.95
2023-04-22T05:57:57.985Z,25.97
2023-04-22T06:00:24.714Z,24.90
2023-04-22T06:02:52.023Z,24.35
2023-04-22T06:05:18.900Z,22.61
2023-04-22T06:07:45.723Z,22.59
2023-04-22T06:10:12.489Z,22.04
2023-04-22T06:12:39.164Z,22.06
2023-04-22T06:15:06.503Z,20.99
2023-04-22T06:17:33.225Z,20.37
2023-04-22T06:19:59.957Z,19.72
2023-04-22T06:22:26.664Z,19.13
2023-04-22T06:24:53.584Z,18.20
2023-04-22T06:27:20.187Z,17.79
2023-04-22T06:29:46.844Z,17.86
2023-04-22T06:32:13.480Z,17.04
2023-04-22T06:34:40.295Z,17.20
2023-04-22T06:37:07.066Z,16.53
2023-04-22T06:39:33.774Z,16.38
2023-04-22T06:42:02.018Z,16.12
2023-04-22T06:44:29.226Z,16.42
2023-04-22T06:46:57.917Z,15.94
2023-04-22T06:49:25.087Z,15.87
2023-04-22T06:51:51.887Z,16.34
2023-04-22T06:54:18.534Z,16.62
2023-04-22T06:56:45.250Z,16.90
2023-04-22T06:59:12.007Z,16.67
2023-04-22T07:01:38.686Z,17.75
2023-04-22T07:04:05.592Z,18.47
2023-04-22T07:06:33.128Z,19.03
2023-04-22T07:09:00.112Z,19.51
2023-04-22T07:11:27.813Z,19.42
2023-04-22T07:13:54.578Z,19.30
2023-04-22T07:16:21.253Z,18.86
2023-04-22T07:18:48.027Z,19.24
2023-04-22T07:21:14.754Z,19.51
2023-04-22T07:23:41.488Z,18.91
2023-04-22T07:26:08.153Z,18.78
2023-04-22T07:28:34.791Z,18.45
2023-04-22T07:31:02.086Z,18.80
2023-04-22T07:33:28.768Z,18.49
2023-04-22T07:35:55.524Z,18.75
2023-04-22T07:38:22.160Z,19.47
2023-04-22T07:40:48.916Z,20.86
2023-04-22T07:43:15.544Z,21.11
2023-04-22T07:45:42.249Z,21.92
2023-04-22T07:48:08.923Z,22.52
2023-04-22T07:50:38.167Z,23.31
2023-04-22T07:53:06.055Z,23.86
2023-04-22T07:55:32.852Z,25.23
2023-04-22T07:58:01.223Z,26.03
2023-04-22T08:00:28.069Z,26.62
2023-04-22T08:02:54.885Z,26.35
2023-04-22T08:05:22.018Z,27.07
2023-04-22T08:07:48.726Z,27.59
2023-04-22T08:10:15.391Z,27.29
2023-04-22T08:12:42.115Z,27.76
2023-04-22T08:15:09.287Z,27.01
2023-04-22T08:17:36.307Z,27.51
2023-04-22T08:20:06.572Z,28.02
2023-04-22T08:22:35.407Z,27.88
2023-04-22T08:25:02.888Z,28.34
2023-04-22T08:27:29.525Z,27.48
2023-04-22T08:29:56.331Z,26.98
2023-04-22T08:32:26.478Z,27.61
2023-04-22T08:34:54.202Z,26.95
2023-04-22T08:37:25.086Z,27.84
2023-04-22T08:39:52.238Z,27.69
2023-04-22T08:42:20.014Z,27.78
2023-04-22T08:44:46.944Z,27.45
2023-04-22T08:47:15.063Z,26.49
2023-04-22T08:49:42.612Z,27.20
2023-04-22T08:52:09.641Z,26.53
2023-04-22T08:54:37.553Z,27.52
2023-04-22T08:57:04.412Z,27.05
2023-04-22T08:59:31.363Z,27.60
2023-04-22T09:01:58.673Z,27.88
2023-04-22T09:04:25.990Z,28.02
2023-04-22T09:06:53.023Z,29.22
2023-04-22T09:09:19.848Z,27.96
2023-04-22T09:11:46.597Z,27.14
2023-04-22T09:14:13.240Z,27.09
2023-04-22T09:16:46.864Z,27.42
2023-04-22T09:19:16.595Z,28.43
2023-04-22T09:21:43.305Z,27.04
2023-04-22T09:24:11.305Z,25.84
2023-04-22T09:26:42.055Z,27.46
2023-04-22T09:29:09.705Z,27.06
2023-04-22T09:31:40.859Z,26.79
2023-04-22T09:34:07.611Z,25.99
2023-04-22T09:36:34.475Z,25.75
2023-04-22T09:39:04.822Z,27.44
2023-04-22T09:41:39.184Z,29.02
2023-04-22T09:44:09.651Z,28.40
2023-04-22T09:46:36.465Z,30.21
2023-04-22T09:49:03.133Z,28.99
2023-04-22T09:51:30.874Z,28.99
2023-04-22T09:54:06.474Z,28.99
2023-04-22T09:56:52.237Z,28.95
2023-04-22T09:59:29.229Z,29.51
2023-04-22T10:01:57.347Z,27.47
2023-04-22T10:04:25.589Z,26.58
2023-04-22T10:06:54.798Z,26.82
2023-04-22T10:09:23.119Z,27.23
2023-04-22T10:11:51.564Z,28.39
2023-04-22T10:14:18.423Z,28.95
2023-04-22T10:16:46.650Z,30.19
2023-04-22T10:19:23.404Z,30.09
2023-04-22T10:21:57.468Z,30.76
2023-04-22T10:24:26.516Z,31.01
2023-04-22T10:27:00.174Z,28.13
2023-04-22T10:29:27.567Z,31.29
2023-04-22T10:32:05.677Z,31.06
2023-04-22T10:34:33.684Z,30.31
2023-04-22T10:37:11.750Z,31.38
2023-04-22T10:39:39.748Z,31.80
2023-04-22T10:42:06.725Z,29.46
2023-04-22T10:44:49.741Z,28.70
2023-04-22T10:47:26.396Z,31.73
2023-04-22T10:50:08.665Z,31.55
2023-04-22T10:52:35.362Z,30.24
2023-04-22T10:55:02.093Z,30.59
2023-04-22T10:57:37.910Z,30.14
2023-04-22T11:00:35.330Z,30.48
2023-04-22T11:03:10.802Z,31.42
2023-04-22T11:05:37.691Z,30.81
2023-04-22T11:08:08.280Z,28.15
2023-04-22T11:10:45.465Z,27.96
2023-04-22T11:13:14.329Z,27.17
2023-04-22T11:15:42.358Z,28.70
2023-04-22T11:18:27.798Z,29.65
2023-04-22T11:20:54.572Z,29.34
2023-04-22T11:23:28.071Z,30.91
2023-04-22T11:25:58.447Z,30.11
2023-04-22T11:28:25.450Z,30.12
2023-04-22T11:30:52.780Z,31.11
2023-04-22T11:33:19.514Z,29.32
2023-04-22T11:35:46.250Z,30.04
2023-04-22T11:38:12.895Z,32.79
2023-04-22T11:40:45.947Z,30.57
2023-04-22T11:43:13.329Z,31.69
2023-04-22T11:45:40.173Z,29.81
2023-04-22T11:48:08.210Z,32.29
2023-04-22T11:50:36.354Z,31.62
2023-04-22T11:53:13.360Z,30.79
2023-04-22T11:55:40.538Z,32.13
2023-04-22T11:58:07.884Z,31.18
2023-04-22T12:00:45.164Z,30.87
2023-04-22T12:03:22.685Z,30.50
2023-04-22T12:05:57.533Z,32.47
2023-04-22T12:08:24.966Z,31.39
2023-04-22T12:10:54.732Z,32.69
2023-04-22T12:13:26.425Z,30.06
2023-04-22T12:16:19.821Z,29.24
2023-04-22T12:18:54.077Z,30.00
2023-04-22T12:21:22.248Z,30.21
2023-04-22T12:24:00.817Z,29.48
2023-04-22T12:26:28.545Z,28.86
2023-04-22T12:28:56.219Z,30.38
2023-04-22T12:31:23.009Z,32.81
2023-04-22T12:33:49.841Z,30.63
2023-04-22T12:36:18.765Z,33.44
2023-04-22T12:38:45.444Z,33.61
2023-04-22T12:41:12.075Z,29.05
2023-04-22T12:43:40.000Z,30.27
2023-04-22T12:46:07.635Z,29.88
2023-04-22T12:48:34.489Z,29.68
2023-04-22T12:51:13.312Z,31.33
2023-04-22T12:53:39.923Z,31.33
2023-04-22T12:56:06.535Z,31.86
2023-04-22T12:58:33.254Z,32.01
2023-04-22T13:01:00.005Z,31.70
2023-04-22T13:03:27.120Z,30.10
2023-04-22T13:05:53.842Z,30.42
2023-04-22T13:08:20.501Z,28.90
2023-04-22T13:10:47.131Z,29.41
2023-04-22T13:13:18.334Z,30.05
2023-04-22T13:15:54.180Z,30.13
2023-04-22T13:18:22.283Z,30.54
2023-04-22T13:20:48.910Z,32.69
2023-04-22T13:23:17.179Z,31.77
2023-04-22T13:25:44.327Z,32.73
2023-04-22T13:28:11.638Z,32.24
2023-04-22T13:30:38.728Z,31.07
2023-04-22T13:33:05.460Z,29.97
2023-04-22T13:35:32.116Z,29.64
2023-04-22T13:37:58.933Z,29.43
2023-04-22T13:40:27.403Z,28.68
2023-04-22T13:42:55.384Z,28.81
2023-04-22T13:45:22.281Z,30.12
2023-04-22T13:47:49.045Z,29.93
2023-04-22T13:50:15.774Z,29.29
2023-04-22T13:52:42.662Z,28.97
2023-04-22T13:55:09.636Z,30.85
2023-04-22T13:57:36.252Z,30.37
2023-04-22T14:00:03.207Z,30.88
2023-04-22T14:02:29.969Z,31.23
2023-04-22T14:04:56.666Z,30.04
2023-04-22T14:07:23.341Z,32.13
2023-04-22T14:09:50.281Z,31.48
2023-04-22T14:12:16.916Z,31.86
2023-04-22T14:14:43.972Z,31.65
2023-04-22T14:17:10.710Z,32.36
2023-04-22T14:19:39.533Z,31.26
2023-04-22T14:22:06.734Z,30.01
2023-04-22T14:24:33.521Z,32.75
2023-04-22T14:27:01.841Z,30.25
2023-04-22T14:29:29.982Z,29.91
2023-04-22T14:31:59.656Z,30.28
2023-04-22T14:34:27.349Z,30.69
2023-04-22T14:36:54.242Z,32.42
2023-04-22T14:39:21.525Z,30.94
2023-04-22T14:41:48.279Z,32.82
2023-04-22T14:44:17.901Z,32.90
2023-04-22T14:46:45.307Z,33.29
2023-04-22T14:49:12.012Z,31.74
2023-04-22T14:51:38.634Z,31.44
2023-04-22T14:54:05.567Z,30.43
2023-04-22T14:56:32.604Z,30.10
2023-04-22T14:58:59.250Z,30.79
2023-04-22T15:01:25.980Z,32.94
2023-04-22T15:03:52.846Z,32.94
2023-04-22T15:06:19.648Z,33.26
2023-04-22T15:08:46.342Z,33.64
2023-04-22T15:11:12.989Z,33.00
2023-04-22T15:13:39.755Z,32.42
2023-04-22T15:16:06.475Z,31.06
2023-04-22T15:18:33.229Z,32.54
2023-04-22T15:20:59.822Z,30.72
2023-04-22T15:23:26.445Z,30.87
2023-04-22T15:25:53.091Z,30.71
2023-04-22T15:28:19.709Z,31.36
2023-04-22T15:30:46.409Z,31.24
2023-04-22T15:33:13.100Z,31.36
2023-04-22T15:35:41.550Z,30.65
2023-04-22T15:38:08.209Z,30.06
2023-04-22T15:40:34.789Z,29.83
2023-04-22T15:43:01.451Z,30.23
2023-04-22T15:45:28.077Z,30.82
2023-04-22T15:47:54.949Z,30.89
2023-04-22T15:50:23.521Z,32.50
2023-04-22T15:52:50.285Z,33.91
2023-04-22T15:55:16.900Z,33.29
2023-04-22T15:57:43.583Z,33.14
2023-04-22T16:00:13.447Z,31.98
2023-04-22T16:02:41.133Z,32.50
2023-04-22T16:05:08.228Z,32.36
2023-04-22T16:07:35.044Z,33.28
2023-04-22T16:10:02.158Z,33.07
2023-04-22T16:12:29.038Z,32.84
2023-04-22T16:14:55.706Z,32.71
2023-04-22T16:17:22.353Z,32.75
2023-04-22T16:19:49.348Z,32.13
2023-04-22T16:22:16.398Z,31.63
2023-04-22T16:24:44.345Z,32.22
2023-04-22T16:27:16.294Z,32.46
2023-04-22T16:29:43.611Z,32.26
2023-04-22T16:32:10.727Z,33.62
2023-04-22T16:34:38.482Z,32.97
2023-04-22T16:37:05.499Z,33.44
2023-04-22T16:39:32.188Z,33.05
2023-04-22T16:41:59.194Z,32.96
2023-04-22T16:44:25.884Z,33.07
2023-04-22T16:46:52.740Z,32.80
2023-04-22T16:49:19.709Z,32.66
2023-04-22T16:51:46.413Z,32.40
2023-04-22T16:54:13.162Z,31.99
2023-04-22T16:56:39.895Z,33.79
2023-04-22T16:59:06.517Z,33.77
2023-04-22T17:01:33.136Z,34.48
2023-04-22T17:04:00.135Z,34.47
2023-04-22T17:06:28.066Z,36.17
2023-04-22T17:08:54.716Z,35.88
2023-04-22T17:11:22.034Z,35.98
2023-04-22T17:13:48.721Z,34.65
2023-04-22T17:16:15.672Z,35.24
2023-04-22T17:18:42.583Z,34.87
2023-04-22T17:21:09.316Z,36.03
2023-04-22T17:23:36.174Z,36.08
2023-04-22T17:26:02.890Z,35.90
2023-04-22T17:28:29.572Z,37.52
2023-04-22T17:30:56.250Z,39.36
2023-04-22T17:33:23.034Z,39.39
2023-04-22T17:35:49.652Z,39.14
2023-04-22T17:38:16.360Z,38.94
2023-04-22T17:40:43.841Z,39.57
2023-04-22T17:43:10.597Z,39.76
2023-04-22T17:45:37.288Z,40.38
2023-04-22T17:48:04.125Z,40.45
2023-04-22T17:50:30.854Z,40.72
2023-04-22T17:52:58.160Z,40.83
2023-04-22T17:55:24.901Z,41.70
2023-04-22T17:57:51.542Z,42.34
2023-04-22T18:00:19.018Z,42.77
2023-04-22T18:02:45.937Z,43.27
2023-04-22T18:05:12.769Z,43.11
2023-04-22T18:07:39.555Z,44.09
2023-04-22T18:10:06.997Z,45.72
2023-04-22T18:12:34.029Z,45.68
2023-04-22T18:15:01.721Z,47.21
2023-04-22T18:17:28.428Z,47.72
2023-04-22T18:20:02.903Z,47.62
2023-04-22T18:22:32.981Z,47.69
2023-04-22T18:25:01.911Z,47.91
2023-04-22T18:27:28.948Z,48.42
2023-04-22T18:29:58.672Z,48.74
2023-04-22T18:32:25.363Z,49.75
2023-04-22T18:34:52.100Z,49.75
2023-04-22T18:37:18.759Z,49.84
2023-04-22T18:39:45.618Z,49.93
2023-04-22T18:42:12.232Z,50.72
2023-04-22T18:44:39.061Z,51.38
2023-04-22T18:47:05.814Z,52.15
2023-04-22T18:49:33.918Z,53.02
2023-04-22T18:52:01.138Z,52.43
2023-04-22T18:54:30.706Z,52.78
2023-04-22T18:56:58.275Z,52.96
2023-04-22T18:59:24.958Z,53.20
2023-04-22T19:01:51.853Z,53.15
2023-04-22T19:04:18.616Z,53.60
2023-04-22T19:06:45.411Z,53.81
2023-04-22T19:09:12.099Z,53.62
2023-04-22T19:11:38.821Z,54.44
2023-04-22T19:14:05.973Z,54.73
2023-04-22T19:16:32.705Z,54.52
2023-04-22T19:19:00.456Z,54.60
2023-04-22T19:21:27.320Z,55.06
2023-04-22T19:23:54.286Z,55.21
2023-04-22T19:26:22.028Z,55.81
2023-04-22T19:28:49.036Z,55.96
2023-04-22T19:31:17.382Z,56.55
2023-04-22T19:33:44.616Z,56.33
2023-04-22T19:36:11.239Z,56.40
2023-04-22T19:38:37.916Z,56.82
2023-04-22T19:41:04.522Z,56.67
2023-04-22T19:43:31.344Z,57.17
2023-04-22T19:45:58.563Z,57.93
2023-04-22T19:48:26.890Z,57.64
2023-04-22T19:50:53.570Z,58.50
2023-04-22T19:53:20.332Z,57.99
2023-04-22T19:55:46.964Z,57.80
2023-04-22T19:58:13.593Z,57.79
2023-04-22T20:00:40.420Z,58.71
2023-04-22T20:03:07.652Z,58.56
2023-04-22T20:05:34.764Z,58.75
2023-04-22T20:08:02.039Z,59.18
2023-04-22T20:10:29.137Z,58.88
2023-04-22T20:12:55.906Z,59.25
2023-04-22T20:15:23.003Z,58.87
2023-04-22T20:17:50.295Z,59.18
2023-04-22T20:20:17.857Z,58.81
2023-04-22T20:22:45.292Z,59.11
2023-04-22T20:25:15.903Z,59.29
2023-04-22T20:27:42.676Z,59.45
2023-04-22T20:30:10.034Z,59.35
2023-04-22T20:32:36.955Z,59.30
2023-04-22T20:35:04.274Z,59.05
2023-04-22T20:37:34.004Z,60.19
2023-04-22T20:40:04.605Z,60.33
2023-04-22T20:42:33.193Z,59.92
2023-04-22T20:44:59.848Z,60.12
2023-04-22T20:47:26.644Z,60.42
2023-04-22T20:49:53.307Z,60.80
2023-04-22T20:52:19.922Z,60.58
2023-04-22T20:54:51.341Z,60.78
2023-04-22T20:57:18.885Z,60.76
2023-04-22T20:59:46.023Z,60.89
2023-04-22T21:02:12.786Z,60.88
2023-04-22T21:04:40.406Z,61.17
2023-04-22T21:07:07.783Z,61.19
2023-04-22T21:09:34.697Z,61.27
2023-04-22T21:12:02.387Z,60.96
2023-04-22T21:14:29.286Z,61.64
2023-04-22T21:16:58.179Z,61.44
2023-04-22T21:19:24.943Z,61.59
2023-04-22T21:21:52.137Z,61.44
2023-04-22T21:24:18.801Z,61.28
2023-04-22T21:26:46.073Z,61.34
2023-04-22T21:29:12.990Z,61.85
2023-04-22T21:31:39.658Z,61.87
2023-04-22T21:34:08.604Z,61.39
2023-04-22T21:36:35.427Z,61.62
2023-04-22T21:39:04.292Z,61.69
2023-04-22T21:41:31.461Z,61.50
2023-04-22T21:43:58.101Z,61.83
2023-04-22T21:46:24.798Z,61.49
2023-04-22T21:48:51.507Z,61.69
2023-04-22T21:51:18.193Z,61.57
2023-04-22T21:53:44.796Z,62.24
2023-04-22T21:56:11.415Z,62.46
2023-04-22T21:58:38.173Z,62.61
2023-04-22T22:01:05.963Z,62.65
2023-04-22T22:03:32.887Z,62.79
2023-04-22T22:05:59.697Z,62.36
2023-04-22T22:08:27.039Z,62.43
2023-04-22T22:10:53.669Z,62.66
2023-04-22T22:13:20.320Z,63.25
2023-04-22T22:15:47.162Z,63.07
2023-04-22T22:18:13.772Z,62.93
2023-04-22T22:20:41.277Z,63.26
2023-04-22T22:23:07.873Z,63.33
2023-04-22T22:25:34.560Z,63.67
2023-04-22T22:28:01.385Z,62.80
2023-04-22T22:30:28.085Z,63.20
2023-04-22T22:32:54.968Z,62.85
2023-04-22T22:35:21.867Z,63.41
2023-04-22T22:37:48.567Z,63.58
2023-04-22T22:40:15.281Z,63.35
2023-04-22T22:42:41.936Z,62.92
2023-04-22T22:45:09.023Z,63.01
2023-04-22T22:47:35.965Z,63.48
2023-04-22T22:50:02.628Z,63.51
2023-04-22T22:52:29.235Z,63.48
2023-04-22T22:54:55.945Z,63.61
2023-04-22T22:57:22.695Z,64.09
2023-04-22T22:59:49.321Z,63.98
2023-04-22T23:02:16.049Z,64.23
2023-04-22T23:04:43.388Z,63.80
2023-04-22T23:07:10.736Z,63.86
2023-04-22T23:09:37.331Z,63.83
2023-04-22T23:12:04.134Z,64.21
2023-04-22T23:14:30.821Z,64.02
2023-04-22T23:16:57.550Z,64.53
2023-04-22T23:19:24.253Z,64.33
2023-04-22T23:21:50.909Z,63.97
2023-04-22T23:24:17.762Z,64.59
2023-04-22T23:26:44.803Z,64.23
2023-04-22T23:29:11.762Z,64.73
2023-04-22T23:31:39.138Z,64.69
2023-04-22T23:34:06.062Z,64.76
2023-04-22T23:36:36.592Z,65.10
2023-04-22T23:39:03.755Z,65.17
2023-04-22T23:41:30.409Z,65.11
2023-04-22T23:43:57.006Z,65.24
2023-04-22T23:46:23.699Z,64.92
2023-04-22T23:48:51.507Z,65.29
2023-04-22T23:51:18.095Z,65.32
2023-04-22T23:53:44.883Z,65.03
2023-04-22T23:56:12.439Z,65.32
2023-04-22T23:58:39.567Z,65.56
